Time;durP1;ratioP1;P1;durP2;ratioP2;P2;SDS_P1;SDS_P2;PMS_P1;PMS_P2;Temp;Humidity;BMP_temperature;BMP_pressure;BME280_temperature;BME280_humidity;BME280_pressure;Samples;Min_cycle;Max_cycle;Signal;HPM_P1;HPM_P2
2022/11/27 00:02:22;;;;;;;0.95;0.90;;;;;;;29.71;75.33;100898.81;5088871;27;66176;-34
2022/11/27 00:04:53;;;;;;;1.35;0.95;;;;;;;29.72;74.81;100900.47;5087257;27;69953;-34
2022/11/27 00:07:25;;;;;;;1.25;0.93;;;;;;;29.22;75.21;100827.16;5086094;27;66036;-33
2022/11/27 00:09:56;;;;;;;1.75;1.00;;;;;;;29.59;74.87;100890.50;5092474;27;69859;-35
2022/11/27 00:12:28;;;;;;;1.30;1.20;;;;;;;29.56;74.65;100890.09;5083968;27;66244;-33
2022/11/27 00:15:00;;;;;;;2.10;0.90;;;;;;;29.72;74.82;100911.28;5080137;27;70084;-34
2022/11/27 00:17:31;;;;;;;1.43;1.10;;;;;;;29.70;75.23;100918.81;5082425;27;66463;-33
2022/11/27 00:20:03;;;;;;;1.45;1.02;;;;;;;29.72;74.86;100924.81;5091908;27;70106;-34
2022/11/27 00:22:35;;;;;;;1.88;1.08;;;;;;;29.74;75.26;100930.84;5086690;27;67153;-33
2022/11/27 00:25:07;;;;;;;1.37;1.20;;;;;;;29.71;75.23;100936.69;5087823;27;69202;-35
2022/11/27 00:27:39;;;;;;;1.05;0.93;;;;;;;29.71;74.88;100950.19;5095905;27;65383;-33
2022/11/27 00:30:10;;;;;;;1.08;0.98;;;;;;;29.31;74.68;100888.06;5085732;27;70538;-34
2022/11/27 00:32:41;;;;;;;;;;;;;;;29.56;75.39;100952.25;5082152;27;66320;-34
2022/11/27 00:35:12;;;;;;;1.00;0.90;;;;;;;29.61;75.09;100942.50;5087388;27;70255;-33
2022/11/27 00:37:44;;;;;;;2.00;0.80;;;;;;;29.47;74.92;100919.22;5086416;27;66283;-34
2022/11/27 00:40:15;;;;;;;2.60;1.40;;;;;;;29.72;74.57;100965.38;5083838;27;70559;-33
2022/11/27 00:42:47;;;;;;;1.30;1.00;;;;;;;29.73;74.92;100972.44;5085593;27;65360;-34
2022/11/27 00:45:19;;;;;;;5.00;1.20;;;;;;;29.68;74.98;100968.72;5084772;27;69046;-34
2022/11/27 00:47:50;;;;;;;2.22;1.20;;;;;;;29.76;75.08;100984.72;5085365;27;64995;-34
2022/11/27 00:50:22;;;;;;;4.10;1.20;;;;;;;29.75;74.86;100983.03;5088751;27;70306;-34
2022/11/27 00:52:53;;;;;;;1.10;1.00;;;;;;;29.77;74.50;100992.59;5088616;27;65403;-36
2022/11/27 00:55:25;;;;;;;1.23;1.13;;;;;;;29.67;74.76;100983.25;5086645;27;69337;-36
2022/11/27 00:57:57;;;;;;;1.92;1.67;;;;;;;29.79;74.98;101004.06;5087141;27;67114;-36
2022/11/27 01:00:28;;;;;;;;;;;;;;;29.62;75.46;100998.22;5090295;27;70393;-33
2022/11/27 01:02:59;;;;;;;2.42;1.35;;;;;;;29.79;74.69;101009.47;5088327;27;65465;-34
2022/11/27 01:05:31;;;;;;;1.52;1.38;;;;;;;29.76;74.44;101007.19;5091859;27;70250;-34
2022/11/27 01:08:04;;;;;;;1.85;1.30;;;;;;;29.67;74.72;100986.81;5086387;27;66185;-33
2022/11/27 01:10:35;;;;;;;1.40;1.00;;;;;;;29.73;74.63;100995.97;5081194;27;69828;-37
2022/11/27 01:13:06;;;;;;;1.77;0.90;;;;;;;29.45;74.72;100963.69;5083537;27;65191;-36
2022/11/27 01:15:38;;;;;;;1.13;1.02;;;;;;;29.74;74.22;100998.44;5085331;27;71805;-33
2022/11/27 01:18:09;;;;;;;3.63;1.10;;;;;;;29.84;74.56;101006.97;5087877;27;65978;-34
2022/11/27 01:20:41;;;;;;;1.20;1.10;;;;;;;29.84;74.57;101006.97;5081287;27;70230;-34
2022/11/27 01:23:12;;;;;;;1.60;1.35;;;;;;;29.84;74.53;101003.44;5089641;27;65291;-34
2022/11/27 01:25:43;;;;;;;1.77;1.00;;;;;;;29.80;74.42;100994.88;5081577;27;69038;-34
2022/11/27 01:28:16;;;;;;;1.48;1.33;;;;;;;29.85;74.14;101007.78;5087281;27;66070;-33
2022/11/27 01:30:48;;;;;;;1.45;1.13;;;;;;;29.88;74.35;101001.13;5091235;27;70269;-33
2022/11/27 01:33:20;;;;;;;1.30;1.10;;;;;;;29.47;74.25;100930.00;5078595;27;66700;-34
2022/11/27 01:35:56;;;;;;;1.85;1.25;;;;;;;29.43;73.77;100927.97;5089344;27;70481;-33
2022/11/27 01:38:31;;;;;;;1.10;1.00;;;;;;;29.89;73.93;100992.78;5079139;27;66218;-34
2022/11/27 01:41:06;;;;;;;1.52;0.90;;;;;;;29.37;74.06;100914.25;5093370;27;69662;-33
2022/11/27 01:43:51;;;;;;;3.38;0.80;;;;;;;29.43;73.68;100936.06;5082966;27;66464;-33
2022/11/27 01:46:38;;;;;;;1.15;1.05;;;;;;;29.91;73.66;101016.94;5088491;27;69997;-34
2022/11/27 01:49:18;;;;;;;2.50;1.25;;;;;;;29.93;74.11;101006.75;5085083;27;66200;-34
2022/11/27 01:51:57;;;;;;;3.67;1.02;;;;;;;29.82;73.51;100987.41;5091805;27;70292;-35
2022/11/27 01:54:34;;;;;;;1.10;0.90;;;;;;;29.56;73.29;100933.31;5081504;27;65713;-34
2022/11/27 01:57:11;;;;;;;1.63;0.90;;;;;;;29.06;73.64;100854.59;5082198;27;70597;-34
2022/11/27 01:59:45;;;;;;;1.75;0.90;;;;;;;29.99;73.33;100998.59;5083231;27;66642;-34
2022/11/27 02:02:17;;;;;;;1.30;0.82;;;;;;;29.99;73.81;101003.19;5089731;27;70273;-35
2022/11/27 02:04:49;;;;;;;2.47;1.10;;;;;;;29.99;73.87;100993.19;5083666;27;66272;-35
2022/11/27 02:07:21;;;;;;;1.00;0.90;;;;;;;29.88;73.35;100979.50;5091537;27;69636;-35
2022/11/27 02:09:53;;;;;;;3.60;1.10;;;;;;;30.02;73.48;100992.75;5084620;27;65810;-36
2022/11/27 02:12:35;;;;;;;2.88;0.63;;;;;;;29.75;73.51;100964.94;5092082;27;69798;-35
2022/11/27 02:15:30;;;;;;;;;;;;;;;29.81;74.24;100996.56;5084771;27;66483;-34
2022/11/27 02:18:21;;;;;;;1.52;1.10;;;;;;;30.01;73.36;100996.53;5091759;27;70433;-34
2022/11/27 02:21:23;;;;;;;1.13;0.90;;;;;;;29.48;73.49;100914.66;5082325;27;65783;-36
2022/11/27 02:24:01;;;;;;;1.88;0.93;;;;;;;30.05;73.17;100996.91;5083602;27;70068;-34
2022/11/27 02:27:04;;;;;;;1.20;0.80;;;;;;;29.38;73.08;100891.56;5082135;27;66644;-33
2022/11/27 02:29:38;;;;;;;1.35;1.10;;;;;;;30.08;72.87;100991.09;5080939;27;69006;-34
2022/11/27 02:32:23;;;;;;;1.17;0.88;;;;;;;29.60;73.24;100918.38;5092384;27;66763;-34
2022/11/27 02:35:08;;;;;;;2.22;0.90;;;;;;;29.58;72.83;100920.44;5089934;27;69194;-37
2022/11/27 02:37:46;;;;;;;1.95;1.15;;;;;;;30.13;72.79;100998.56;5079826;27;67246;-37
2022/11/27 02:40:25;;;;;;;2.65;1.10;;;;;;;30.14;72.96;100990.22;5081317;27;70123;-34
2022/11/27 02:43:06;;;;;;;3.95;0.90;;;;;;;29.65;72.96;100902.38;5086855;27;65778;-35
2022/11/27 02:45:45;;;;;;;1.48;0.95;;;;;;;30.16;73.12;100992.75;5084637;27;70011;-36
2022/11/27 02:48:22;;;;;;;2.38;1.20;;;;;;;30.14;72.32;100976.69;5085576;27;66443;-33
2022/11/27 02:50:55;;;;;;;1.73;1.15;;;;;;;30.17;72.41;100984.41;5088342;27;70763;-34
2022/11/27 02:53:34;;;;;;;1.33;0.90;;;;;;;29.80;72.91;100911.06;5081810;27;67039;-37
2022/11/27 02:56:10;;;;;;;1.55;1.02;;;;;;;30.18;72.78;100964.44;5085678;27;70540;-35
2022/11/27 02:58:42;;;;;;;5.68;1.40;;;;;;;30.18;72.56;100959.00;5087500;27;66465;-33
2022/11/27 03:01:17;;;;;;;1.90;0.90;;;;;;;29.24;72.77;100798.06;5080687;27;70069;-33
2022/11/27 03:03:54;;;;;;;3.90;0.85;;;;;;;30.25;72.60;100981.47;5086825;27;66203;-33
2022/11/27 03:06:35;;;;;;;7.78;1.10;;;;;;;30.25;72.67;100976.06;5092985;27;69598;-33
2022/11/27 03:09:13;;;;;;;1.13;0.82;;;;;;;29.95;72.11;100909.97;5085472;27;66432;-34
2022/11/27 03:11:45;;;;;;;4.35;1.05;;;;;;;30.13;72.55;100949.88;5087635;27;70630;-35
2022/11/27 03:14:19;;;;;;;2.15;1.33;;;;;;;30.20;71.76;100956.94;5086200;27;66811;-33
2022/11/27 03:17:05;;;;;;;2.50;1.08;;;;;;;30.31;72.46;100970.84;5088655;27;70687;-34
2022/11/27 03:19:57;;;;;;;7.05;1.10;;;;;;;30.25;72.44;100959.84;5086000;27;65090;-35
2022/11/27 03:22:30;;;;;;;;;;;;;;;30.10;72.38;100943.00;5091001;27;69631;-36
2022/11/27 03:25:01;;;;;;;3.83;1.25;;;;;;;30.30;72.38;100939.44;5087493;27;66337;-34
2022/11/27 03:27:40;;;;;;;4.78;1.20;;;;;;;29.80;72.00;100854.28;5081615;27;69876;-34
2022/11/27 03:30:13;;;;;;;1.83;1.23;;;;;;;30.32;71.78;100927.34;5091502;27;66048;-33
2022/11/27 03:32:44;;;;;;;1.65;0.85;;;;;;;30.38;72.20;100931.91;5081475;27;69829;-33
2022/11/27 03:35:21;;;;;;;2.08;0.75;;;;;;;30.27;71.63;100909.03;5087316;27;66190;-35
2022/11/27 03:37:53;;;;;;;2.22;0.90;;;;;;;30.41;71.79;100920.63;5080284;27;69492;-34
2022/11/27 03:40:36;;;;;;;4.97;1.10;;;;;;;29.91;71.41;100838.44;5082534;27;65474;-34
2022/11/27 03:43:18;;;;;;;2.30;0.73;;;;;;;29.95;71.56;100845.06;5091307;27;69295;-36
2022/11/27 03:46:27;;;;;;;1.23;0.90;;;;;;;30.37;71.53;100913.16;5084871;27;66675;-33
2022/11/27 03:49:08;;;;;;;1.75;0.80;;;;;;;30.44;71.71;100919.38;5085647;27;70123;-37
2022/11/27 03:51:55;;;;;;;1.52;0.95;;;;;;;30.45;71.27;100904.78;5091708;27;66079;-34
2022/11/27 03:54:38;;;;;;;1.85;0.95;;;;;;;29.98;71.41;100833.84;5090083;27;70137;-37
2022/11/27 03:57:21;;;;;;;2.10;0.70;;;;;;;30.46;71.87;100901.03;5101548;27;66289;-35
2022/11/27 03:59:56;;;;;;;2.30;0.85;;;;;;;29.63;71.39;100755.78;5088484;27;70449;-35
2022/11/27 04:02:32;;;;;;;1.38;0.90;;;;;;;30.49;71.34;100890.59;5088971;27;66145;-33
2022/11/27 04:05:04;;;;;;;0.80;0.70;;;;;;;30.51;71.64;100893.13;5087246;27;70403;-35
2022/11/27 04:07:36;;;;;;;4.97;0.65;;;;;;;30.50;71.88;100886.84;5085754;27;67078;-35
2022/11/27 04:10:10;;;;;;;1.30;0.60;;;;;;;30.55;71.37;100878.09;5083678;27;69547;-37
2022/11/27 04:12:41;;;;;;;0.98;0.63;;;;;;;30.58;71.42;100877.63;5091594;27;66865;-35
2022/11/27 04:15:14;;;;;;;1.65;0.98;;;;;;;30.59;71.44;100868.50;5111500;27;70452;-34
2022/11/27 04:17:45;;;;;;;0.60;0.50;;;;;;;30.60;71.69;100864.72;5085635;27;65915;-34
2022/11/27 04:20:16;;;;;;;2.50;0.95;;;;;;;30.60;71.48;100864.72;5086683;27;69085;-34
2022/11/27 04:22:48;;;;;;;3.10;0.90;;;;;;;30.60;71.00;100851.19;5090113;27;66058;-35
2022/11/27 04:25:21;;;;;;;1.42;0.90;;;;;;;30.64;71.23;100854.28;5079465;27;69301;-35
2022/11/27 04:27:52;;;;;;;1.10;0.70;;;;;;;30.64;71.64;100846.97;5089816;27;65922;-34
2022/11/27 04:30:24;;;;;;;1.75;0.90;;;;;;;30.65;70.96;100848.66;5091446;27;69585;-34
2022/11/27 04:32:55;;;;;;;0.90;0.60;;;;;;;30.63;71.23;100837.22;5088808;27;65458;-35
2022/11/27 04:35:27;;;;;;;1.13;0.70;;;;;;;30.64;71.47;100838.03;5088356;27;69908;-34
2022/11/27 04:37:59;;;;;;;2.28;1.25;;;;;;;30.65;71.01;100832.41;5086674;27;66181;-36
2022/11/27 04:40:29;;;;;;;;;;;;;;;30.50;71.90;100834.59;5079306;27;69215;-36
2022/11/27 04:43:01;;;;;;;1.00;0.63;;;;;;;30.66;70.94;100828.63;5087780;27;66851;-34
2022/11/27 04:45:32;;;;;;;1.05;0.85;;;;;;;30.72;70.98;100830.47;5095176;27;69860;-33
2022/11/27 04:48:04;;;;;;;;;;;;;;;30.54;71.70;100827.72;5086599;27;65706;-41
2022/11/27 04:50:35;;;;;;;1.13;0.82;;;;;;;30.74;71.15;100824.84;5089280;27;69697;-34
2022/11/27 04:53:07;;;;;;;6.32;0.60;;;;;;;30.76;70.69;100811.06;5095787;27;65819;-35
2022/11/27 04:55:38;;;;;;;;;;;;;;;30.57;71.64;100804.78;5093034;27;70551;-34
2022/11/27 04:58:10;;;;;;;1.40;0.85;;;;;;;30.60;71.19;100778.09;5088174;27;66890;-34
2022/11/27 05:00:41;;;;;;;1.63;0.80;;;;;;;30.78;70.81;100790.00;5091081;27;70249;-35
2022/11/27 05:03:12;;;;;;;1.13;1.00;;;;;;;30.80;70.55;100787.94;5092770;27;64941;-34
2022/11/27 05:05:44;;;;;;;1.17;0.80;;;;;;;30.79;70.79;100780.84;5086602;27;69490;-34
2022/11/27 05:08:15;;;;;;;1.02;0.70;;;;;;;30.79;70.97;100781.69;5081387;27;65353;-35
2022/11/27 05:10:59;;;;;;;0.65;0.60;;;;;;;30.80;70.84;100774.41;5081986;27;70201;-35
2022/11/27 05:13:30;;;;;;;1.48;0.73;;;;;;;30.76;70.76;100765.03;5091594;27;66406;-36
2022/11/27 05:16:03;;;;;;;1.55;0.73;;;;;;;30.82;70.88;100754.19;5090359;27;70481;-35
2022/11/27 05:18:35;;;;;;;0.90;0.68;;;;;;;30.80;70.84;100753.56;5087282;27;65459;-41
2022/11/27 05:21:08;;;;;;;1.25;0.73;;;;;;;30.82;70.71;100758.78;5086850;27;68994;-38
2022/11/27 05:23:39;;;;;;;1.15;0.68;;;;;;;30.88;70.48;100747.03;5068120;27;66690;-37
2022/11/27 05:26:11;;;;;;;0.70;0.70;;;;;;;30.88;70.84;100747.03;5085734;27;70301;-37
2022/11/27 05:28:43;;;;;;;0.93;0.82;;;;;;;30.89;70.61;100743.28;5080492;27;66204;-37
2022/11/27 05:31:15;;;;;;;3.78;0.80;;;;;;;30.90;70.70;100743.06;5081610;27;69756;-35
2022/11/27 05:33:47;;;;;;;1.08;0.73;;;;;;;30.94;70.44;100735.31;5084686;27;65304;-33
2022/11/27 05:36:19;;;;;;;0.95;0.90;;;;;;;30.95;70.54;100731.53;5091434;27;70204;-35
2022/11/27 05:38:50;;;;;;;1.10;0.70;;;;;;;30.96;70.41;100732.41;5083259;27;66151;-35
2022/11/27 05:41:22;;;;;;;0.70;0.50;;;;;;;30.92;70.53;100726.56;5079201;27;70058;-36
2022/11/27 05:43:54;;;;;;;1.35;0.80;;;;;;;30.99;70.40;100719.22;5083140;27;65865;-34
2022/11/27 05:46:26;;;;;;;0.80;0.68;;;;;;;30.96;70.18;100711.53;5080166;27;69176;-35
2022/11/27 05:48:57;;;;;;;0.90;0.80;;;;;;;30.90;70.29;100701.63;5080650;27;66338;-33
2022/11/27 05:51:29;;;;;;;1.00;0.70;;;;;;;31.01;70.60;100714.41;5085435;27;69430;-35
2022/11/27 05:54:00;;;;;;;1.38;0.85;;;;;;;31.05;70.51;100712.06;5087240;27;66111;-34
2022/11/27 05:56:32;;;;;;;1.80;0.68;;;;;;;31.01;69.86;100698.16;5084045;27;70963;-36
2022/11/27 05:59:04;;;;;;;0.82;0.80;;;;;;;31.04;70.22;100695.00;5084043;27;66212;-34
2022/11/27 06:01:35;;;;;;;0.75;0.60;;;;;;;31.02;69.71;100690.84;5086313;27;69834;-37
2022/11/27 06:04:07;;;;;;;0.95;0.63;;;;;;;31.05;69.90;100687.69;5093104;27;64692;-36
2022/11/27 06:06:38;;;;;;;0.95;0.77;;;;;;;31.09;70.17;100689.72;5090552;27;69173;-35
2022/11/27 06:09:10;;;;;;;0.77;0.68;;;;;;;31.11;69.59;100682.19;5081083;27;66354;-36
2022/11/27 06:11:42;;;;;;;;;;;;;;;30.93;70.31;100682.19;5086127;27;69521;-34
2022/11/27 06:14:14;;;;;;;3.17;0.82;;;;;;;30.80;70.00;100630.88;5086137;27;66114;-35
2022/11/27 06:16:45;;;;;;;3.58;0.75;;;;;;;31.08;69.76;100671.81;5080847;27;70199;-36
2022/11/27 06:19:17;;;;;;;0.85;0.73;;;;;;;31.14;69.66;100665.47;5091315;27;66285;-35
2022/11/27 06:21:48;;;;;;;2.83;0.85;;;;;;;31.16;69.93;100663.38;5088921;27;70010;-35
2022/11/27 06:24:20;;;;;;;1.40;0.70;;;;;;;31.15;70.08;100664.44;5083438;27;65042;-35
2022/11/27 06:26:52;;;;;;;2.42;0.57;;;;;;;31.16;69.58;100660.66;5091740;27;69850;-37
2022/11/27 06:29:23;;;;;;;4.68;1.00;;;;;;;31.13;69.98;100647.56;5080053;27;65440;-38
2022/11/27 06:31:55;;;;;;;;;;;;;;;31.00;70.41;100653.13;5089695;27;70447;-37
2022/11/27 06:34:26;;;;;;;1.02;0.90;;;;;;;31.16;69.95;100643.56;5085916;27;67061;-35
2022/11/27 06:36:57;;;;;;;1.65;1.20;;;;;;;31.21;70.01;100651.84;5084844;27;70271;-37
2022/11/27 06:39:29;;;;;;;1.27;0.90;;;;;;;31.22;69.71;100641.84;5087107;27;66266;-34
2022/11/27 06:42:00;;;;;;;2.08;1.00;;;;;;;30.93;69.69;100590.13;5082505;27;69864;-35
2022/11/27 06:44:31;;;;;;;2.13;0.80;;;;;;;31.21;69.62;100637.50;5077334;27;65044;-37
2022/11/27 06:47:03;;;;;;;0.82;0.63;;;;;;;31.26;69.74;100637.59;5082258;27;69191;-35
2022/11/27 06:49:35;;;;;;;1.67;1.05;;;;;;;31.29;69.65;100631.75;5082091;27;66057;-36
2022/11/27 06:52:06;;;;;;;1.77;0.93;;;;;;;31.16;69.67;100606.47;5089797;27;70301;-34
2022/11/27 06:54:38;;;;;;;2.38;0.95;;;;;;;31.32;69.92;100615.84;5081444;27;65059;-34
2022/11/27 06:57:10;;;;;;;2.55;0.80;;;;;;;31.35;69.92;100617.28;5081607;27;69961;-36
2022/11/27 06:59:41;;;;;;;2.22;1.00;;;;;;;31.34;69.48;100618.31;5083369;27;66028;-36
2022/11/27 07:02:16;;;;;;;4.85;0.85;;;;;;;31.39;69.44;100613.88;5086254;27;69667;-35
2022/11/27 07:04:47;;;;;;;1.77;0.70;;;;;;;31.44;69.58;100615.91;5086698;27;66415;-36
2022/11/27 07:07:18;;;;;;;;;;;;;;;31.24;69.92;100612.63;5090799;27;69654;-34
2022/11/27 07:09:50;;;;;;;0.70;0.70;;;;;;;31.46;69.59;100613.81;5085469;27;66538;-34
2022/11/27 07:12:21;;;;;;;2.05;0.60;;;;;;;31.48;69.22;100600.84;5086061;27;69947;-35
2022/11/27 07:14:53;;;;;;;1.35;1.02;;;;;;;31.42;69.02;100587.38;5085202;27;65122;-36
2022/11/27 07:17:24;;;;;;;1.17;1.08;;;;;;;31.54;68.83;100593.69;5084378;27;69793;-35
2022/11/27 07:19:56;;;;;;;6.88;6.13;;;;;;;31.56;69.28;100595.06;5086944;27;65790;-35
2022/11/27 07:22:28;;;;;;;10.02;9.30;;;;;;;31.56;69.38;100589.66;5083958;27;69761;-39
2022/11/27 07:25:00;;;;;;;9.13;8.63;;;;;;;31.42;69.14;100552.97;5088439;27;64605;-36
2022/11/27 07:27:40;;;;;;;10.00;9.30;;;;;;;31.53;69.04;100576.56;5083235;27;70178;-37
2022/11/27 07:30:16;;;;;;;7.95;7.55;;;;;;;31.54;69.00;100572.00;5086089;27;66673;-35
2022/11/27 07:32:48;;;;;;;7.95;7.40;;;;;;;31.63;68.97;100567.88;5082441;27;70483;-35
2022/11/27 07:35:20;;;;;;;7.60;7.10;;;;;;;31.65;68.81;100570.34;5079183;27;66105;-34
2022/11/27 07:37:51;;;;;;;6.68;6.28;;;;;;;31.47;68.88;100538.72;5082569;27;70220;-35
2022/11/27 07:40:22;;;;;;;6.43;6.07;;;;;;;31.68;68.69;100562.59;5083181;27;65313;-36
2022/11/27 07:42:54;;;;;;;5.68;5.28;;;;;;;31.67;68.46;100554.69;5080569;27;69107;-34
2022/11/27 07:45:25;;;;;;;5.65;5.35;;;;;;;31.75;68.58;100565.19;5080387;27;66319;-35
2022/11/27 07:47:56;;;;;;;5.10;4.80;;;;;;;31.76;68.80;100572.25;5084755;27;69263;-34
2022/11/27 07:50:29;;;;;;;4.82;4.53;;;;;;;31.72;68.37;100552.09;5080985;27;65962;-34
2022/11/27 07:53:00;;;;;;;4.57;4.25;;;;;;;31.79;68.35;100552.81;5080929;27;69199;-38
2022/11/27 07:55:32;;;;;;;3.78;3.53;;;;;;;31.82;68.35;100544.22;5083433;27;65526;-34
2022/11/27 07:58:03;;;;;;;4.00;3.70;;;;;;;31.81;68.53;100539.84;5082713;27;70125;-35
2022/11/27 08:00:35;;;;;;;3.22;3.03;;;;;;;31.83;68.38;100538.53;5085417;27;66536;-36
2022/11/27 08:03:06;;;;;;;;;;;;;;;31.72;68.82;100547.50;5078697;27;69871;-33
2022/11/27 08:05:37;;;;;;;3.00;2.67;;;;;;;31.91;68.12;100542.81;5089338;27;65948;-35
2022/11/27 08:08:09;;;;;;;3.67;2.95;;;;;;;31.94;68.21;100542.34;5094698;27;69237;-39
2022/11/27 08:10:41;;;;;;;3.15;2.95;;;;;;;31.94;68.18;100539.63;5089032;27;66561;-36
2022/11/27 08:13:12;;;;;;;;;;;;;;;31.89;68.26;100547.63;5092977;27;70093;-33
2022/11/27 08:15:44;;;;;;;2.25;2.05;;;;;;;32.08;67.73;100533.97;5080305;27;64856;-33
2022/11/27 08:18:16;;;;;;;2.38;2.28;;;;;;;32.12;67.63;100529.72;5083312;27;69814;-33
2022/11/27 08:20:48;;;;;;;2.92;2.00;;;;;;;32.14;67.67;100524.88;5084133;27;66603;-34
2022/11/27 08:23:19;;;;;;;3.35;2.50;;;;;;;32.20;67.50;100516.59;5083887;27;70798;-34
2022/11/27 08:25:50;;;;;;;2.28;1.95;;;;;;;32.21;67.53;100522.88;5092468;27;66009;-34
2022/11/27 08:28:22;;;;;;;2.00;1.90;;;;;;;32.22;67.53;100516.38;5084242;27;69125;-34
2022/11/27 08:30:58;;;;;;;1.85;1.75;;;;;;;32.25;67.49;100524.88;5084470;27;66272;-34
2022/11/27 08:33:30;;;;;;;2.40;2.20;;;;;;;32.25;67.38;100518.63;5083766;27;70720;-33
2022/11/27 08:36:02;;;;;;;4.30;2.10;;;;;;;32.26;67.44;100525.69;5089435;27;66286;-33
2022/11/27 08:38:34;;;;;;;2.58;1.65;;;;;;;32.28;67.36;100537.13;5088110;27;69606;-34
2022/11/27 08:41:06;;;;;;;4.68;1.70;;;;;;;32.29;67.23;100541.53;5083956;27;66246;-34
2022/11/27 08:43:40;;;;;;;5.07;1.60;;;;;;;32.31;67.42;100544.81;5085578;27;44122;-35
2022/11/27 08:46:12;;;;;;;2.72;1.73;;;;;;;32.11;67.40;100514.50;5093869;27;65478;-37
2022/11/27 08:48:43;;;;;;;1.92;1.83;;;;;;;32.25;67.33;100534.91;5082848;27;69701;-35
2022/11/27 08:51:16;;;;;;;1.50;1.40;;;;;;;31.85;67.32;100469.69;5083686;27;65072;-35
2022/11/27 08:53:47;;;;;;;5.43;1.58;;;;;;;32.32;67.65;100541.03;5093609;27;70457;-34
2022/11/27 08:56:22;;;;;;;1.88;1.60;;;;;;;32.19;67.25;100525.00;5086513;27;65674;-34
2022/11/27 08:58:54;;;;;;;1.60;1.50;;;;;;;32.31;66.91;100539.38;5084628;27;69616;-34
2022/11/27 09:01:26;;;;;;;;;;;;;;;32.12;67.61;100538.69;5070024;27;65553;-34
2022/11/27 09:03:58;;;;;;;2.22;1.30;;;;;;;32.24;67.06;100534.09;5086591;27;70900;-36
2022/11/27 09:06:33;;;;;;;1.77;1.10;;;;;;;32.24;67.11;100525.13;5085017;27;66236;-34
2022/11/27 09:09:05;;;;;;;1.60;1.08;;;;;;;32.33;67.50;100564.41;5090490;27;70473;-34
2022/11/27 09:11:37;;;;;;;3.47;1.40;;;;;;;32.22;67.18;100538.09;5088492;27;65340;-34
2022/11/27 09:14:10;;;;;;;1.10;1.00;;;;;;;32.22;67.48;100555.19;5089734;27;70234;-34
2022/11/27 09:16:41;;;;;;;1.23;1.00;;;;;;;32.24;67.54;100560.41;5085260;27;65796;-35
2022/11/27 09:19:13;;;;;;;1.05;0.95;;;;;;;32.27;67.36;100566.16;5085341;27;69816;-35
2022/11/27 09:21:45;;;;;;;0.85;0.80;;;;;;;32.31;67.35;100571.94;5090051;27;65287;-34
2022/11/27 09:24:17;;;;;;;1.50;0.95;;;;;;;32.33;67.11;100575.25;5087315;27;70029;-34
2022/11/27 09:26:49;;;;;;;1.48;1.20;;;;;;;32.34;67.40;100571.47;5083570;27;66153;-34
2022/11/27 09:29:20;;;;;;;3.92;1.05;;;;;;;32.16;66.92;100542.59;5081701;27;69633;-34
2022/11/27 09:31:53;;;;;;;0.82;0.70;;;;;;;32.27;67.39;100571.59;5085736;27;66349;-33
2022/11/27 09:34:24;;;;;;;3.90;1.05;;;;;;;32.30;67.43;100592.03;5087166;27;69045;-36
2022/11/27 09:36:56;;;;;;;1.27;0.88;;;;;;;31.90;67.47;100533.03;5080420;27;65971;-34
2022/11/27 09:39:32;;;;;;;2.20;1.05;;;;;;;31.65;67.47;100503.41;5085549;27;70168;-35
2022/11/27 09:42:07;;;;;;;1.58;1.15;;;;;;;32.11;67.02;100585.06;5084482;27;65971;-35
2022/11/27 09:44:47;;;;;;;2.55;0.70;;;;;;;31.92;67.16;100549.88;5085969;27;70482;-34
2022/11/27 09:47:28;;;;;;;2.95;0.82;;;;;;;31.69;67.29;100517.31;5086350;27;66761;-35
2022/11/27 09:50:20;;;;;;;5.43;0.80;;;;;;;31.92;67.60;100574.31;5079046;27;69416;-37
2022/11/27 09:53:03;;;;;;;1.33;1.00;;;;;;;31.76;67.53;100531.56;5080300;27;66690;-38
2022/11/27 09:55:34;;;;;;;;;;;;;;;32.03;68.35;100625.03;5083804;27;69481;-35
2022/11/27 09:58:37;;;;;;;1.13;0.60;;;;;;;31.61;67.63;100529.31;5089618;27;67265;-35
2022/11/27 10:01:18;;;;;;;0.90;0.63;;;;;;;32.19;67.75;100634.38;5084966;27;69941;-34
2022/11/27 10:03:49;;;;;;;1.63;0.70;;;;;;;32.19;68.10;100633.56;5080794;27;66078;-37
2022/11/27 10:06:39;;;;;;;1.50;0.95;;;;;;;32.19;67.57;100633.56;5084991;27;70145;-35
2022/11/27 10:09:39;;;;;;;1.40;0.63;;;;;;;32.13;67.76;100645.34;5094168;27;66404;-34
2022/11/27 10:12:40;;;;;;;3.80;1.00;;;;;;;32.11;68.26;100658.31;5085164;27;70984;-36
2022/11/27 10:15:22;;;;;;;0.85;0.70;;;;;;;32.10;68.14;100662.09;5082813;27;66104;-34
2022/11/27 10:18:23;;;;;;;1.38;0.77;;;;;;;32.12;67.91;100666.22;5094243;27;70125;-37
2022/11/27 10:21:00;;;;;;;2.45;0.88;;;;;;;32.12;68.03;100671.63;5079085;27;65467;-35
2022/11/27 10:23:53;;;;;;;1.40;0.80;;;;;;;32.05;68.07;100679.09;5082611;27;70348;-35
2022/11/27 10:26:44;;;;;;;0.80;0.70;;;;;;;31.53;68.51;100609.09;5087429;27;66097;-34
2022/11/27 10:29:34;;;;;;;0.90;0.63;;;;;;;31.98;68.52;100687.34;5080990;27;71078;-36
2022/11/27 10:32:16;;;;;;;1.05;0.80;;;;;;;31.96;68.39;100684.03;5083989;27;66276;-35
2022/11/27 10:35:18;;;;;;;2.30;0.98;;;;;;;31.29;68.63;100581.09;5084558;27;70615;-35
2022/11/27 10:37:55;;;;;;;2.45;0.90;;;;;;;32.01;68.69;100692.28;5083329;27;65568;-37
2022/11/27 10:40:59;;;;;;;1.17;0.75;;;;;;;31.95;68.59;100698.63;5084749;27;70367;-35
2022/11/27 10:43:31;;;;;;;1.73;0.90;;;;;;;31.97;68.70;100701.94;5091340;27;66181;-35
2022/11/27 10:46:13;;;;;;;1.10;0.80;;;;;;;31.95;68.89;100704.03;5084662;27;70799;-36
2022/11/27 10:48:44;;;;;;;0.85;0.80;;;;;;;31.94;68.84;100688.84;5083359;27;65642;-35
2022/11/27 10:51:20;;;;;;;1.10;1.00;;;;;;;31.46;68.91;100613.00;5087012;27;69988;-34
2022/11/27 10:53:53;;;;;;;1.38;1.17;;;;;;;31.83;68.94;100682.28;5082156;27;66763;-35
2022/11/27 10:56:48;;;;;;;1.30;1.05;;;;;;;31.83;69.12;100714.84;5086034;27;69578;-36
2022/11/27 10:59:45;;;;;;;1.27;0.95;;;;;;;31.80;69.22;100711.78;5081863;27;66365;-35
2022/11/27 11:02:28;;;;;;;2.08;1.05;;;;;;;31.85;69.15;100730.91;5080281;27;70164;-34
2022/11/27 11:05:30;;;;;;;1.20;1.10;;;;;;;31.77;69.36;100723.09;5083969;27;66091;-36
2022/11/27 11:08:23;;;;;;;4.47;1.33;;;;;;;31.87;69.54;100726.03;5079416;27;68654;-37
2022/11/27 11:10:58;;;;;;;1.27;1.17;;;;;;;31.84;69.23;100712.94;5084078;27;66522;-38
2022/11/27 11:13:39;;;;;;;1.02;0.88;;;;;;;31.82;69.45;100715.09;5092953;27;70197;-35
2022/11/27 11:16:11;;;;;;;1.02;0.93;;;;;;;31.79;69.78;100715.56;5079335;27;66602;-36
2022/11/27 11:18:45;;;;;;;1.63;0.93;;;;;;;31.79;69.84;100716.38;5077177;27;70044;-35
2022/11/27 11:21:33;;;;;;;1.63;0.95;;;;;;;31.42;69.43;100655.97;5086296;27;66592;-36
2022/11/27 11:24:25;;;;;;;2.65;1.17;;;;;;;31.57;69.51;100685.41;5080033;27;70562;-37
2022/11/27 11:27:04;;;;;;;3.05;1.50;;;;;;;31.63;69.77;100689.06;5083708;27;66663;-36
2022/11/27 11:29:36;;;;;;;1.75;1.38;;;;;;;31.75;69.41;100714.34;5079973;27;70658;-34
2022/11/27 11:32:14;;;;;;;1.17;1.08;;;;;;;31.74;70.00;100708.09;5091853;27;66611;-37
2022/11/27 11:34:58;;;;;;;1.10;0.98;;;;;;;31.63;69.62;100699.91;5082372;27;70185;-37
2022/11/27 11:37:37;;;;;;;1.10;1.00;;;;;;;31.69;69.75;100726.94;5084830;27;65851;-35
2022/11/27 11:40:24;;;;;;;1.70;1.25;;;;;;;31.14;69.59;100649.22;5085058;27;70175;-35
2022/11/27 11:43:02;;;;;;;1.48;1.08;;;;;;;31.27;69.86;100666.38;5082313;27;65442;-35
2022/11/27 11:45:34;;;;;;;3.75;0.88;;;;;;;31.15;70.02;100655.47;5079434;27;70079;-36
2022/11/27 11:48:24;;;;;;;2.25;1.35;;;;;;;31.49;70.34;100727.19;5085412;27;65776;-36
2022/11/27 11:51:22;;;;;;;2.55;1.30;;;;;;;31.63;70.14;100740.59;5081530;27;70437;-37
2022/11/27 11:54:44;;;;;;;1.98;1.30;;;;;;;31.05;70.22;100661.41;5081370;27;67584;-37
2022/11/27 11:57:40;;;;;;;1.50;1.27;;;;;;;31.58;70.30;100750.22;5043130;27;70568;-36
2022/11/27 12:00:17;;;;;;;1.20;1.08;;;;;;;31.47;70.14;100737.44;5080935;27;65919;-34
2022/11/27 12:03:09;;;;;;;1.10;1.00;;;;;;;31.57;70.35;100756.72;5083932;27;69607;-34
2022/11/27 12:06:10;;;;;;;2.88;1.48;;;;;;;31.36;70.36;100727.38;5086306;27;66348;-36
2022/11/27 12:08:50;;;;;;;1.33;1.00;;;;;;;31.10;70.41;100685.97;5082834;27;70326;-34
2022/11/27 12:11:30;;;;;;;2.00;1.30;;;;;;;30.98;70.33;100676.94;5085669;27;66359;-36